.
WxDataArchive / Data Records for 2013-03-12
2013-03-11 March 2013 2013-03-13

Data Records for Tuesday, 12 March 2013

Time	Temp	Chill	HIndex	Humid	Dewpt	 Wind 	HiWind	WindDir	Rain 	Barom 
-----	----	-----	------	-----	-----	------	------	-------	-----	----- 
00:00	35.2	35.2	35.2	87	31.7	3	9	248	0.00	29.770 
00:05	35.2	35.2	35.2	87	31.7	2	6	248	0.00	29.770 
00:10	35.2	35.2	35.2	87	31.7	3	7	248	0.00	29.770 
00:15	35.2	35.2	35.2	86	31.4	2	7	248	0.00	29.770 
00:20	35.2	35.2	35.2	86	31.4	3	11	248	0.00	29.770 
00:25	35.2	31.8	35.2	85	31.2	4	12	248	0.00	29.770 
00:30	34.9	34.9	34.9	85	30.9	3	5	248	0.00	29.781 
00:35	34.7	34.7	34.7	86	30.9	3	7	248	0.00	29.781 
00:40	34.7	34.7	34.7	86	30.9	3	7	248	0.00	29.781 
00:45	34.6	34.6	34.6	86	30.9	3	7	248	0.00	29.784 
00:50	34.6	34.6	34.6	86	30.9	2	5	248	0.00	29.784 
00:55	34.3	34.3	34.3	87	30.8	3	9	248	0.00	29.784 
01:00	34.1	30.5	34.1	88	30.9	4	11	248	0.00	29.791 
01:05	34.1	34.1	34.1	88	30.9	3	7	270	0.00	29.791 
01:10	34.0	34.0	34.0	88	30.8	3	7	248	0.00	29.791 
01:15	34.0	34.0	34.0	88	30.8	3	5	248	0.00	29.791 
01:20	33.8	30.2	33.8	88	30.6	4	11	248	0.00	29.791 
01:25	33.8	33.8	33.8	87	30.3	3	7	270	0.00	29.791 
01:30	33.8	30.2	33.8	87	30.3	4	10	248	0.00	29.795 
01:35	33.8	30.2	33.8	86	30.1	4	9	248	0.00	29.795 
01:40	34.0	34.0	34.0	85	30.0	3	7	248	0.00	29.795 
01:45	34.0	34.0	34.0	85	30.0	2	5	248	0.00	29.793 
01:50	34.0	34.0	34.0	84	29.7	3	6	248	0.00	29.793 
01:55	34.0	34.0	34.0	84	29.7	3	6	248	0.00	29.793 
02:00	33.8	30.2	33.8	83	29.2	4	9	248	0.00	29.797 
02:05	33.8	29.2	33.8	81	28.6	5	12	248	0.00	29.797 
02:10	33.8	29.2	33.8	81	28.6	5	12	248	0.00	29.797 
02:15	33.8	29.2	33.8	80	28.3	5	15	248	0.00	29.801 
02:20	33.8	33.8	33.8	80	28.3	3	6	248	0.00	29.801 
02:25	33.8	33.8	33.8	80	28.3	3	9	248	0.00	29.801 
02:30	33.8	30.2	33.8	80	28.3	4	10	248	0.00	29.804 
02:35	33.7	30.0	33.7	80	28.2	4	7	248	0.00	29.804 
02:40	33.7	33.7	33.7	80	28.2	2	5	248	0.00	29.804 
02:45	33.7	33.7	33.7	81	28.5	3	7	248	0.00	29.806 
02:50	33.7	30.0	33.7	81	28.5	4	10	248	0.00	29.806 
02:55	33.7	33.7	33.7	81	28.5	3	6	248	0.00	29.806 
03:00	33.7	33.7	33.7	81	28.5	1	4	248	0.00	29.813 
03:05	33.5	33.5	33.5	81	28.3	3	6	248	0.00	29.813 
03:10	33.5	33.5	33.5	81	28.3	2	5	248	0.00	29.813 
03:15	33.5	33.5	33.5	81	28.3	3	6	248	0.00	29.821 
03:20	33.5	33.5	33.5	81	28.3	3	7	248	0.00	29.821 
03:25	33.5	33.5	33.5	81	28.3	3	6	248	0.00	29.821 
03:30	33.4	33.4	33.4	81	28.2	3	10	225	0.00	29.823 
03:35	33.4	33.4	33.4	81	28.2	3	9	248	0.00	29.823 
03:40	33.4	33.4	33.4	81	28.2	3	7	248	0.00	29.823 
03:45	33.4	33.4	33.4	81	28.2	3	6	248	0.00	29.824 
03:50	33.4	33.4	33.4	82	28.5	2	5	248	0.00	29.824 
03:55	33.2	33.2	33.2	82	28.3	3	9	248	0.00	29.824 
04:00	33.2	33.2	33.2	82	28.3	3	7	248	0.00	29.824 
04:05	33.1	33.1	33.1	82	28.2	3	9	248	0.00	29.824 
04:10	33.1	33.1	33.1	83	28.5	3	10	248	0.00	29.824 
04:15	32.9	32.9	32.9	83	28.3	3	7	248	0.00	29.822 
04:20	32.9	32.9	32.9	83	28.3	3	9	248	0.00	29.822 
04:25	32.9	32.9	32.9	83	28.3	3	7	248	0.00	29.822 
04:30	32.8	32.8	32.8	83	28.2	2	5	248	0.00	29.823 
04:35	32.8	32.8	32.8	83	28.2	3	7	270	0.00	29.823 
04:40	32.8	32.8	32.8	83	28.2	2	5	248	0.00	29.823 
04:45	32.8	32.8	32.8	83	28.2	3	6	248	0.00	29.825 
04:50	32.7	28.9	32.7	83	28.1	4	7	248	0.00	29.825 
04:55	32.7	32.7	32.7	83	28.1	2	9	248	0.00	29.825 
05:00	32.7	32.7	32.7	83	28.1	2	6	248	0.00	29.830 
05:05	32.7	32.7	32.7	83	28.1	3	6	248	0.00	29.830 
05:10	32.5	32.5	32.5	84	28.2	2	7	248	0.00	29.830 
05:15	32.5	32.5	32.5	84	28.2	2	6	248	0.00	29.838 
05:20	32.5	32.5	32.5	84	28.2	3	9	248	0.00	29.838 
05:25	32.5	32.5	32.5	84	28.2	3	10	248	0.00	29.838 
05:30	32.5	32.5	32.5	84	28.2	3	6	248	0.00	29.839 
05:35	32.5	32.5	32.5	83	27.9	3	5	248	0.00	29.839 
05:40	32.5	32.5	32.5	83	27.9	3	6	248	0.00	29.839 
05:45	32.5	32.5	32.5	83	27.9	2	5	248	0.00	29.847 
05:50	32.5	32.5	32.5	83	27.9	2	5	248	0.00	29.847 
05:55	32.5	32.5	32.5	83	27.9	3	10	248	0.00	29.847 
06:00	32.5	32.5	32.5	83	27.9	2	5	270	0.00	29.852 
06:05	32.5	32.5	32.5	83	27.9	2	7	248	0.00	29.852 
06:10	32.4	32.4	32.4	83	27.8	3	6	248	0.00	29.852 
06:15	32.4	32.4	32.4	83	27.8	3	6	248	0.00	29.859 
06:20	32.4	32.4	32.4	83	27.8	3	7	248	0.00	29.859 
06:25	32.4	32.4	32.4	83	27.8	2	4	248	0.00	29.859 
06:30	32.2	32.2	32.2	83	27.6	2	4	248	0.00	29.860 
06:35	32.2	32.2	32.2	83	27.6	2	6	248	0.00	29.860 
06:40	32.2	32.2	32.2	83	27.6	0	2	248	0.00	29.860 
06:45	32.2	32.2	32.2	83	27.6	2	4	248	0.00	29.861 
06:50	32.4	32.4	32.4	83	27.8	1	4	248	0.00	29.861 
06:55	32.4	32.4	32.4	83	27.8	2	5	248	0.00	29.861 
07:00	32.4	32.4	32.4	82	27.5	2	4	248	0.00	29.872 
07:05	32.4	32.4	32.4	82	27.5	2	5	248	0.00	29.872 
07:10	32.4	32.4	32.4	82	27.5	2	4	248	0.00	29.872 
07:15	32.4	32.4	32.4	82	27.5	2	5	248	0.00	29.877 
07:20	32.4	32.4	32.4	82	27.5	1	5	248	0.00	29.877 
07:25	32.4	32.4	32.4	81	27.2	3	7	248	0.00	29.877 
07:30	32.4	32.4	32.4	81	27.2	2	7	248	0.00	29.877 
07:35	32.4	32.4	32.4	81	27.2	2	3	248	0.00	29.877 
07:40	32.4	32.4	32.4	81	27.2	2	5	248	0.00	29.877 
07:45	32.4	32.4	32.4	81	27.2	2	5	248	0.00	29.878 
07:50	32.2	32.2	32.2	81	27.0	2	4	248	0.00	29.878 
07:55	32.2	32.2	32.2	81	27.0	2	4	248	0.00	29.878 
08:00	32.2	32.2	32.2	81	27.0	1	4	248	0.00	29.881 
08:05	32.1	32.1	32.1	81	26.9	1	4	248	0.00	29.881 
08:10	32.1	32.1	32.1	81	26.9	2	5	248	0.00	29.881 
08:15	32.1	32.1	32.1	81	26.9	1	3	248	0.00	29.888 
08:20	32.1	32.1	32.1	81	26.9	3	6	248	0.00	29.888 
08:25	32.1	32.1	32.1	81	26.9	2	6	248	0.00	29.888 
08:30	32.1	32.1	32.1	81	26.9	2	5	248	0.00	29.893 
08:35	32.1	32.1	32.1	81	26.9	2	4	248	0.00	29.893 
08:40	32.1	32.1	32.1	81	26.9	2	5	248	0.00	29.893 
08:45	32.1	32.1	32.1	81	26.9	2	6	248	0.00	29.906 
08:50	31.9	31.9	31.9	81	26.7	3	9	248	0.00	29.906 
08:55	31.9	31.9	31.9	81	26.7	2	4	248	0.00	29.906 
09:00	31.9	31.9	31.9	81	26.7	2	5	248	0.00	29.909 
09:05	31.9	31.9	31.9	82	27.0	2	5	248	0.00	29.909 
09:10	31.9	31.9	31.9	82	27.0	2	7	248	0.00	29.909 
09:15	31.8	31.8	31.8	83	27.2	3	7	248	0.00	29.914 
09:20	31.6	31.6	31.6	83	27.0	2	5	248	0.00	29.914 
09:25	31.6	31.6	31.6	83	27.0	3	10	248	0.00	29.914 
09:30	31.5	31.5	31.5	83	26.9	3	10	248	0.00	29.919 
09:35	31.5	31.5	31.5	82	26.7	3	10	248	0.00	29.919 
09:40	31.3	31.3	31.3	82	26.5	3	10	248	0.00	29.919 
09:45	31.3	31.3	31.3	81	26.2	3	9	248	0.00	29.924 
09:50	31.3	31.3	31.3	81	26.2	3	7	248	0.00	29.924 
09:55	31.2	31.2	31.2	81	26.1	3	8	248	0.00	29.924 
10:00	31.2	31.2	31.2	81	26.1	3	6	248	0.00	29.926 
10:05	31.2	31.2	31.2	80	25.8	2	4	248	0.00	29.926 
10:10	31.2	31.2	31.2	79	25.5	3	6	248	0.00	29.926 
10:15	31.2	31.2	31.2	79	25.5	3	7	248	0.00	29.930 
10:20	31.2	31.2	31.2	78	25.2	3	7	248	0.00	29.930 
10:25	31.2	31.2	31.2	78	25.2	3	7	248	0.00	29.930 
10:30	31.2	31.2	31.2	77	24.8	3	10	248	0.00	29.936 
10:35	31.0	31.0	31.0	77	24.7	3	6	248	0.00	29.936 
10:40	31.0	31.0	31.0	76	24.3	3	9	248	0.00	29.936 
10:45	31.2	31.2	31.2	76	24.5	2	6	248	0.00	29.934 
10:50	31.2	31.2	31.2	75	24.2	2	5	248	0.00	29.934 
10:55	31.0	26.9	31.0	73	23.4	4	11	248	0.00	29.934 
11:00	31.0	31.0	31.0	73	23.4	2	6	248	0.00	29.940 
11:05	31.0	31.0	31.0	74	23.7	1	3	248	0.00	29.940 
11:10	31.2	31.2	31.2	74	23.9	2	5	248	0.00	29.940 
11:15	31.0	31.0	31.0	74	23.7	2	5	248	0.00	29.936 
11:20	31.0	31.0	31.0	75	24.0	2	7	248	0.00	29.936 
11:25	31.0	31.0	31.0	75	24.0	3	6	248	0.00	29.936 
11:30	30.9	30.9	30.9	75	23.9	2	4	248	0.00	29.929 
11:35	30.9	30.9	30.9	76	24.2	2	4	248	0.00	29.929 
11:40	31.0	31.0	31.0	76	24.3	1	4	248	0.00	29.929 
11:45	31.0	31.0	31.0	76	24.3	2	4	248	0.00	29.941 
11:50	31.0	31.0	31.0	76	24.3	2	5	248	0.00	29.941 
11:55	31.2	31.2	31.2	76	24.5	1	4	248	0.00	29.941 
12:00	31.3	31.3	31.3	75	24.3	2	5	248	0.00	29.946 
12:05	31.5	31.5	31.5	75	24.5	2	5	248	0.00	29.946 
12:10	31.6	31.6	31.6	74	24.3	2	4	248	0.00	29.946 
12:15	31.9	31.9	31.9	74	24.6	2	5	248	0.00	29.945 
12:20	31.9	31.9	31.9	73	24.2	3	9	248	0.00	29.945 
12:25	31.9	31.9	31.9	72	23.9	2	7	248	0.00	29.945 
12:30	31.9	31.9	31.9	71	23.6	3	10	248	0.00	29.954 
12:35	31.9	31.9	31.9	71	23.6	3	7	248	0.00	29.954 
12:40	32.1	32.1	32.1	71	23.8	3	11	248	0.00	29.954 
12:45	32.1	32.1	32.1	70	23.4	3	10	248	0.00	29.958 
12:50	31.9	28.0	31.9	70	23.2	4	12	248	0.00	29.958 
12:55	31.9	28.0	31.9	71	23.6	4	9	248	0.00	29.958 
13:00	31.9	31.9	31.9	72	23.9	2	5	248	0.00	29.951 
13:05	31.9	31.9	31.9	73	24.2	2	6	248	0.00	29.951 
13:10	32.1	32.1	32.1	73	24.4	1	5	248	0.00	29.951 
13:15	32.1	32.1	32.1	72	24.1	3	6	248	0.00	29.958 
13:20	31.9	31.9	31.9	71	23.6	3	9	248	0.00	29.958 
13:25	32.1	32.1	32.1	70	23.4	3	7	248	0.00	29.958 
13:30	32.4	32.4	32.4	69	23.4	2	5	248	0.00	29.958 
13:35	32.5	28.7	32.5	67	22.8	4	9	248	0.00	29.958 
13:40	32.5	32.5	32.5	66	22.4	3	6	248	0.00	29.958 
13:45	32.8	32.8	32.8	66	22.7	3	9	248	0.00	29.957 
13:50	32.8	32.8	32.8	66	22.7	3	10	248	0.00	29.957 
13:55	32.9	32.9	32.9	66	22.8	3	9	248	0.00	29.957 
14:00	33.1	33.1	33.1	66	23.0	3	10	248	0.00	29.949 
14:05	33.4	33.4	33.4	66	23.3	2	5	248	0.00	29.949 
14:10	33.4	33.4	33.4	66	23.3	3	10	248	0.00	29.949 
14:15	33.5	33.5	33.5	66	23.4	2	6	248	0.00	29.944 
14:20	33.5	33.5	33.5	66	23.4	2	5	248	0.00	29.944 
14:25	33.5	33.5	33.5	67	23.7	3	6	248	0.00	29.944 
14:30	33.7	33.7	33.7	67	23.9	3	7	248	0.00	29.942 
14:35	33.8	33.8	33.8	68	24.4	2	9	248	0.00	29.942 
14:40	33.8	33.8	33.8	66	23.7	3	6	248	0.00	29.942 
14:45	34.0	34.0	34.0	66	23.9	3	7	248	0.00	29.942 
14:50	34.1	30.5	34.1	66	23.9	4	9	248	0.00	29.942 
14:55	34.1	30.5	34.1	66	23.9	4	12	248	0.00	29.942 
15:00	34.1	34.1	34.1	66	23.9	3	7	248	0.00	29.941 
15:05	34.1	30.5	34.1	65	23.6	4	11	248	0.00	29.941 
15:10	34.0	30.4	34.0	65	23.5	4	10	248	0.00	29.941 
15:15	34.1	34.1	34.1	66	23.9	3	6	248	0.00	29.938 
15:20	34.1	34.1	34.1	66	23.9	2	9	270	0.00	29.938 
15:25	34.0	30.4	34.0	66	23.9	4	11	248	0.00	29.938 
15:30	34.0	34.0	34.0	66	23.9	3	7	248	0.00	29.935 
15:35	34.0	30.4	34.0	67	24.2	4	10	248	0.00	29.935 
15:40	34.0	34.0	34.0	68	24.6	3	6	248	0.00	29.935 
15:45	34.3	34.3	34.3	69	25.2	2	5	248	0.00	29.933 
15:50	34.7	34.7	34.7	68	25.2	2	5	225	0.00	29.933 
15:55	35.0	35.0	35.0	68	25.5	2	6	248	0.00	29.933 
16:00	35.2	35.2	35.2	67	25.4	3	6	248	0.00	29.937 
16:05	35.3	35.3	35.3	66	25.1	2	7	248	0.00	29.937 
16:10	35.3	31.9	35.3	65	24.7	4	10	248	0.00	29.937 
16:15	35.0	35.0	35.0	65	24.4	3	7	248	0.00	29.938 
16:20	35.0	35.0	35.0	66	24.8	3	9	248	0.00	29.938 
16:25	35.3	35.3	35.3	66	25.1	1	3	248	0.00	29.938 
16:30	35.5	35.5	35.5	65	24.9	3	9	248	0.00	29.932 
16:35	35.6	35.6	35.6	65	25.0	2	5	248	0.00	29.932 
16:40	35.9	35.9	35.9	65	25.3	2	5	248	0.00	29.932 
16:45	35.8	35.8	35.8	63	24.5	3	12	248	0.00	29.935 
16:50	35.8	35.8	35.8	64	24.8	3	9	248	0.00	29.935 
16:55	35.8	35.8	35.8	64	24.8	3	6	248	0.00	29.935 
17:00	35.9	35.9	35.9	63	24.5	3	6	248	0.00	29.939 
17:05	35.9	32.6	35.9	62	24.2	4	11	248	0.00	29.939 
17:10	35.9	35.9	35.9	62	24.2	3	9	248	0.00	29.939 
17:15	35.9	35.9	35.9	62	24.2	3	6	248	0.00	29.941 
17:20	35.9	35.9	35.9	62	24.2	3	6	248	0.00	29.941 
17:25	35.9	32.6	35.9	62	24.2	4	11	248	0.00	29.941 
17:30	35.9	32.6	35.9	61	23.8	4	11	248	0.00	29.943 
17:35	35.9	35.9	35.9	62	24.2	3	9	248	0.00	29.943 
17:40	35.9	35.9	35.9	62	24.2	3	11	248	0.00	29.943 
17:45	35.9	35.9	35.9	61	23.8	3	9	248	0.00	29.944 
17:50	35.8	35.8	35.8	62	24.1	3	11	248	0.00	29.944 
17:55	35.6	35.6	35.6	62	23.9	3	10	248	0.00	29.944 
18:00	35.6	32.2	35.6	61	23.5	4	10	248	0.00	29.948 
18:05	35.5	32.1	35.5	61	23.4	4	10	248	0.00	29.948 
18:10	35.5	32.1	35.5	62	23.8	4	9	248	0.00	29.948 
18:15	35.5	32.1	35.5	62	23.8	4	9	248	0.00	29.945 
18:20	35.5	32.1	35.5	62	23.8	4	10	270	0.00	29.945 
18:25	35.3	31.9	35.3	62	23.6	4	9	248	0.00	29.945 
18:30	35.3	35.3	35.3	62	23.6	3	9	248	0.00	29.952 
18:35	35.3	35.3	35.3	63	24.0	3	10	248	0.00	29.952 
18:40	35.3	31.9	35.3	63	24.0	4	9	248	0.00	29.952 
18:45	35.0	31.5	35.0	62	23.3	4	10	270	0.00	29.957 
18:50	34.9	31.4	34.9	62	23.2	4	7	248	0.00	29.957 
18:55	34.7	34.7	34.7	62	23.0	3	7	248	0.00	29.957 
19:00	34.7	34.7	34.7	62	23.0	3	6	248	0.00	29.958 
19:05	34.7	34.7	34.7	62	23.0	2	5	248	0.00	29.958 
19:10	34.7	34.7	34.7	62	23.0	2	5	248	0.00	29.958 
19:15	34.6	34.6	34.6	63	23.3	2	6	248	0.00	29.959 
19:20	34.4	34.4	34.4	63	23.1	2	4	248	0.00	29.959 
19:25	34.3	34.3	34.3	63	23.0	2	5	248	0.00	29.959 
19:30	34.1	34.1	34.1	63	22.8	2	5	248	0.00	29.961 
19:35	34.1	34.1	34.1	64	23.2	2	5	270	0.00	29.961 
19:40	34.0	34.0	34.0	64	23.1	0	2	270	0.00	29.961 
19:45	33.7	33.7	33.7	65	23.2	1	3	248	0.00	29.960 
19:50	33.5	33.5	33.5	65	23.0	1	4	248	0.00	29.960 
19:55	33.5	33.5	33.5	66	23.4	1	3	248	0.00	29.960 
20:00	33.4	33.4	33.4	66	23.3	0	2	248	0.00	29.962 
20:05	33.1	33.1	33.1	67	23.4	0	2	248	0.00	29.962 
20:10	33.1	33.1	33.1	67	23.4	1	4	248	0.00	29.962 
20:15	32.9	32.9	32.9	68	23.5	1	3	248	0.00	29.966 
20:20	32.9	32.9	32.9	68	23.5	0	1	248	0.00	29.966 
20:25	32.8	32.8	32.8	68	23.4	0	2	248	0.00	29.966 
20:30	32.7	32.7	32.7	69	23.7	0	1	248	0.00	29.963 
20:35	32.7	32.7	32.7	69	23.7	0	2	248	0.00	29.963 
20:40	32.5	32.5	32.5	69	23.5	0	1	248	0.00	29.963 
20:45	32.4	32.4	32.4	69	23.4	0	1	248	0.00	29.967 
20:50	32.4	32.4	32.4	69	23.4	0	1	248	0.00	29.967 
20:55	32.2	32.2	32.2	70	23.5	0	1	248	0.00	29.967 
21:00	32.2	32.2	32.2	70	23.5	0	1	248	0.00	29.965 
21:05	32.2	32.2	32.2	70	23.5	0	2	248	0.00	29.965 
21:10	32.4	32.4	32.4	71	24.1	0	2	248	0.00	29.965 
21:15	32.7	32.7	32.7	72	24.7	1	4	248	0.00	29.975 
21:20	32.9	32.9	32.9	76	26.2	2	6	248	0.00	29.975 
21:25	32.8	32.8	32.8	80	27.3	3	7	248	0.00	29.975 
21:30	32.2	32.2	32.2	83	27.6	3	7	248	0.00	29.985 
21:35	31.9	31.9	31.9	85	27.9	1	2	248	0.00	29.985 
21:40	31.8	31.8	31.8	86	28.1	1	3	248	0.00	29.985 
21:45	31.6	31.6	31.6	87	28.2	1	4	248	0.00	29.978 
21:50	31.6	31.6	31.6	88	28.5	1	3	248	0.00	29.978 
21:55	31.5	31.5	31.5	88	28.4	1	5	248	0.00	29.978 
22:00	31.5	31.5	31.5	88	28.4	1	3	248	0.00	29.974 
22:05	31.3	31.3	31.3	89	28.4	1	5	248	0.00	29.974 
22:10	31.5	31.5	31.5	89	28.6	1	4	248	0.00	29.974 
22:15	31.5	31.5	31.5	89	28.6	1	3	248	0.00	29.976 
22:20	31.5	31.5	31.5	89	28.6	1	3	248	0.00	29.976 
22:25	31.5	31.5	31.5	90	28.9	1	3	248	0.00	29.976 
22:30	31.6	31.6	31.6	90	29.0	1	3	248	0.00	29.976 
22:35	31.6	31.6	31.6	90	29.0	2	4	248	0.00	29.976 
22:40	31.6	31.6	31.6	90	29.0	2	5	248	0.00	29.976 
22:45	31.6	31.6	31.6	89	28.7	2	4	248	0.00	29.978 
22:50	31.5	31.5	31.5	89	28.6	2	9	248	0.00	29.978 
22:55	31.5	31.5	31.5	89	28.6	2	5	248	0.00	29.978 
23:00	31.5	31.5	31.5	88	28.4	2	4	248	0.00	29.977 
23:05	31.3	31.3	31.3	88	28.2	1	4	248	0.00	29.977 
23:10	31.2	31.2	31.2	88	28.1	2	4	248	0.00	29.977 
23:15	31.0	31.0	31.0	87	27.6	0	3	248	0.00	29.978 
23:20	30.9	30.9	30.9	87	27.5	1	4	248	0.00	29.978 
23:25	30.7	30.7	30.7	87	27.3	1	5	248	0.00	29.978 
23:30	30.7	30.7	30.7	87	27.3	1	4	248	0.00	29.980 
23:35	30.7	30.7	30.7	87	27.3	1	4	248	0.00	29.980 
23:40	30.6	30.6	30.6	87	27.2	1	3	248	0.00	29.980 
23:45	30.4	30.4	30.4	87	27.0	1	4	248	0.00	29.980 
23:50	30.4	30.4	30.4	87	27.0	0	3	248	0.00	29.980 
23:55	30.4	30.4	30.4	87	27.0	1	3	248	0.00	29.980 

CoCoRaHS
IN-AL-39
A2 Web Hosting
Creative Commons License
GoDaddy
search engine by freefind advanced

loaded 2018-11-19 19:39:20 • last modified 2010-11-18 10:43:29
Privacy PolicyDisclaimer
• wx.awcolley.com is powered by PmWiki v.2002016 •
• all content (unless otherwise noted) © 2018 A W Colley